Time;durP1;ratioP1;P1;durP2;ratioP2;P2;SDS_P1;SDS_P2;PMS_P1;PMS_P2;Temp;Humidity;BMP_temperature;BMP_pressure;BME280_temperature;BME280_humidity;BME280_pressure;Samples;Min_cycle;Max_cycle;Signal;HPM_P1;HPM_P2
2021/12/24 17:21:23;;;;;;;186.35;92.35;;;4.00;99.90;;;;;;5088621;27;20431;-75
2021/12/24 17:23:51;;;;;;;119.32;63.03;;;3.90;99.90;;;;;;5085205;28;20039;-75
2021/12/24 17:26:19;;;;;;;112.75;60.15;;;3.90;99.90;;;;;;5077868;28;20078;-74
2021/12/24 17:28:49;;;;;;;119.95;58.00;;;3.90;99.90;;;;;;5107407;28;20066;-74
2021/12/24 17:31:17;;;;;;;106.40;58.13;;;3.80;99.90;;;;;;5107196;28;20399;-74
2021/12/24 17:33:45;;;;;;;104.13;57.55;;;3.70;99.90;;;;;;5108519;28;20047;-75
2021/12/24 17:36:13;;;;;;;113.22;58.10;;;3.70;99.90;;;;;;5096676;28;20040;-74
2021/12/24 17:38:41;;;;;;;97.97;54.05;;;3.60;99.90;;;;;;5086727;28;20048;-73
2021/12/24 17:41:09;;;;;;;106.65;55.30;;;3.60;99.90;;;;;;5066361;28;20400;-74
2021/12/24 17:43:36;;;;;;;107.47;55.45;;;3.70;99.90;;;;;;5049554;28;20044;-73
2021/12/24 17:46:03;;;;;;;117.15;57.38;;;3.60;99.90;;;;;;5067132;28;20044;-73
2021/12/24 17:48:31;;;;;;;115.55;55.50;;;3.40;99.90;;;;;;5067450;28;20443;-73
2021/12/24 17:51:02;;;;;;;104.40;54.35;;;3.40;99.90;;;;;;5070030;28;20040;-74
2021/12/24 17:53:31;;;;;;;106.25;53.97;;;3.30;99.90;;;;;;5087855;28;20127;-74
2021/12/24 17:55:59;;;;;;;108.80;57.80;;;3.50;99.90;;;;;;5086710;28;20044;-74
2021/12/24 17:58:26;;;;;;;112.32;55.53;;;3.40;99.90;;;;;;5070181;28;20048;-74
2021/12/24 18:00:58;;;;;;;103.85;56.67;;;3.40;99.90;;;;;;5088013;28;20457;-74
2021/12/24 18:03:26;;;;;;;125.55;60.22;;;3.40;99.90;;;;;;5088202;28;20422;-73
2021/12/24 18:05:55;;;;;;;114.45;61.42;;;3.30;99.90;;;;;;5086830;28;20054;-72
2021/12/24 18:08:23;;;;;;;118.75;62.17;;;3.30;99.90;;;;;;5086964;28;20041;-73
2021/12/24 18:10:51;;;;;;;104.47;57.53;;;3.20;99.90;;;;;;5087366;28;20059;-73
2021/12/24 18:13:22;;;;;;;211.95;119.30;;;3.30;99.90;;;;;;5084616;28;20135;-74
2021/12/24 18:15:49;;;;;;;214.40;109.15;;;3.60;99.90;;;;;;5049721;28;20041;-75
2021/12/24 18:18:17;;;;;;;110.65;60.72;;;3.70;99.90;;;;;;5067402;28;20048;-74
2021/12/24 18:20:46;;;;;;;108.28;57.03;;;3.30;99.90;;;;;;5065570;28;20051;-74
2021/12/24 18:23:15;;;;;;;130.90;66.57;;;3.50;99.90;;;;;;5066284;28;20053;-74
2021/12/24 18:25:42;;;;;;;135.00;75.97;;;3.10;99.90;;;;;;5066111;28;20049;-73
2021/12/24 18:28:09;;;;;;;149.35;81.57;;;3.30;99.90;;;;;;5069752;28;20694;-74
2021/12/24 18:30:37;;;;;;;153.30;84.03;;;2.80;99.90;;;;;;5085529;28;20046;-74
2021/12/24 18:33:05;;;;;;;145.32;79.35;;;2.90;99.90;;;;;;5073440;28;20055;-73
2021/12/24 18:35:52;;;;;;;112.13;58.42;;;3.10;99.90;;;;;;5074331;28;20041;-73
2021/12/24 18:38:19;;;;;;;95.30;52.60;;;2.70;99.90;;;;;;5072662;28;20411;-72
2021/12/24 18:40:49;;;;;;;87.70;46.03;;;2.40;99.90;;;;;;5055075;28;20056;-73
2021/12/24 18:43:19;;;;;;;108.65;56.70;;;2.70;99.90;;;;;;5052811;28;20045;-73
2021/12/24 18:45:48;;;;;;;113.97;61.63;;;2.90;99.90;;;;;;5052343;28;20051;-73
2021/12/24 18:48:17;;;;;;;114.03;60.85;;;3.00;99.90;;;;;;5053413;28;20087;-73
2021/12/24 18:50:47;;;;;;;118.15;61.00;;;3.00;99.90;;;;;;5052684;28;20404;-73
2021/12/24 18:53:14;;;;;;;120.80;59.67;;;2.90;99.90;;;;;;5052395;28;20045;-73
2021/12/24 18:55:47;;;;;;;110.65;57.90;;;3.00;99.90;;;;;;5052352;28;20140;-73
2021/12/24 18:58:15;;;;;;;120.07;60.65;;;3.00;99.90;;;;;;5052215;28;20052;-73
2021/12/24 19:00:45;;;;;;;102.90;58.13;;;3.00;99.90;;;;;;5053236;28;20041;-73
2021/12/24 19:03:13;;;;;;;112.90;60.05;;;2.80;99.90;;;;;;5052029;28;20052;-73
2021/12/24 19:05:43;;;;;;;120.28;63.13;;;2.60;99.90;;;;;;5052455;28;20145;-73
2021/12/24 19:08:11;;;;;;;115.10;60.00;;;2.50;99.90;;;;;;5035462;28;20056;-73
2021/12/24 19:10:39;;;;;;;106.25;60.35;;;2.70;99.90;;;;;;5052210;28;20053;-73
2021/12/24 19:13:07;;;;;;;119.07;58.17;;;2.70;99.90;;;;;;5051817;28;20041;-73
2021/12/24 19:15:36;;;;;;;113.85;60.15;;;2.70;99.90;;;;;;5052411;28;20057;-73
